createdAt,value
2022-12-06T00:03:03.111Z,78.40
2022-12-06T00:08:06.865Z,78.50
2022-12-06T00:13:10.231Z,77.50
2022-12-06T00:18:15.490Z,77.50
2022-12-06T00:23:19.088Z,77.50
2022-12-06T00:28:22.670Z,77.50
2022-12-06T00:33:27.675Z,77.50
2022-12-06T00:38:31.588Z,77.50
2022-12-06T00:43:36.377Z,77.50
2022-12-06T00:48:41.090Z,77.30
2022-12-06T00:53:46.131Z,77.30
2022-12-06T00:58:49.753Z,77.30
2022-12-06T01:03:56.614Z,77.30
2022-12-06T01:09:02.187Z,77.30
2022-12-06T01:14:05.666Z,77.30
2022-12-06T01:19:12.489Z,77.50
2022-12-06T01:24:15.855Z,77.50
2022-12-06T01:29:19.183Z,77.50
2022-12-06T01:34:23.961Z,77.50
2022-12-06T01:39:27.344Z,77.60
2022-12-06T01:44:42.860Z,77.60
2022-12-06T01:49:53.450Z,77.80
2022-12-06T01:54:57.535Z,77.80
2022-12-06T02:00:01.873Z,77.70
2022-12-06T02:05:09.101Z,77.60
2022-12-06T02:10:12.874Z,77.50
2022-12-06T02:15:16.706Z,77.50
2022-12-06T02:20:32.225Z,77.50
2022-12-06T02:26:05.636Z,77.50
2022-12-06T02:31:16.127Z,77.50
2022-12-06T02:36:28.444Z,77.50
2022-12-06T02:41:36.810Z,77.70
2022-12-06T02:46:43.822Z,77.70
2022-12-06T02:51:48.678Z,77.80
2022-12-06T02:56:52.055Z,78.00
2022-12-06T03:02:00.945Z,78.10
2022-12-06T03:07:20.652Z,78.20
2022-12-06T03:12:31.859Z,78.10
2022-12-06T03:17:41.769Z,78.10
2022-12-06T03:22:49.647Z,78.00
2022-12-06T03:27:55.740Z,78.00
2022-12-06T03:33:02.372Z,78.10
2022-12-06T03:38:10.363Z,78.10
2022-12-06T03:43:13.835Z,78.00
2022-12-06T03:48:22.996Z,77.90
2022-12-06T03:53:26.630Z,77.90
2022-12-06T03:58:30.057Z,77.80
2022-12-06T04:03:34.860Z,77.90
2022-12-06T04:08:39.095Z,77.70
2022-12-06T04:13:42.945Z,77.70
2022-12-06T04:18:48.949Z,77.60
2022-12-06T04:23:53.680Z,77.50
2022-12-06T04:29:14.477Z,77.40
2022-12-06T04:34:37.410Z,77.70
2022-12-06T04:39:41.068Z,77.70
2022-12-06T04:44:46.570Z,77.60
2022-12-06T04:49:51.280Z,77.90
2022-12-06T04:54:54.600Z,78.00
2022-12-06T04:59:58.619Z,78.10
2022-12-06T05:05:03.721Z,78.30
2022-12-06T05:10:08.960Z,78.40
2022-12-06T05:15:15.798Z,78.60
2022-12-06T05:20:20.879Z,78.60
2022-12-06T05:25:24.923Z,78.50
2022-12-06T05:30:28.272Z,78.50
2022-12-06T05:35:32.940Z,78.50
2022-12-06T05:40:36.451Z,78.50
2022-12-06T05:45:39.850Z,78.70
2022-12-06T05:50:47.066Z,79.80
2022-12-06T05:55:50.714Z,78.90
2022-12-06T06:00:54.075Z,78.80
2022-12-06T06:06:00.927Z,78.80
2022-12-06T06:11:04.335Z,78.80
2022-12-06T06:16:08.462Z,78.80
2022-12-06T06:21:14.243Z,78.90
2022-12-06T06:26:17.892Z,78.80
2022-12-06T06:31:21.503Z,78.80
2022-12-06T06:36:26.228Z,78.80
2022-12-06T06:41:29.874Z,78.50
2022-12-06T06:46:33.524Z,78.50
2022-12-06T06:51:38.655Z,78.40
2022-12-06T06:56:42.213Z,78.20
2022-12-06T07:01:45.734Z,78.00
2022-12-06T07:06:50.484Z,78.30
2022-12-06T07:11:55.035Z,78.70
2022-12-06T07:16:58.499Z,79.20
2022-12-06T07:22:03.530Z,79.20
2022-12-06T07:27:07.372Z,79.40
2022-12-06T07:32:10.831Z,79.20
2022-12-06T07:37:18.207Z,79.60
2022-12-06T07:42:39.086Z,79.80
2022-12-06T07:47:44.413Z,80.20
2022-12-06T07:52:51.125Z,80.60
2022-12-06T07:57:54.629Z,80.80
2022-12-06T08:02:57.980Z,81.10
2022-12-06T08:08:02.809Z,81.50
2022-12-06T08:13:06.182Z,81.50
2022-12-06T08:18:09.532Z,81.70
2022-12-06T08:23:14.569Z,82.00
2022-12-06T08:28:18.170Z,82.00
2022-12-06T08:33:22.067Z,81.90
2022-12-06T08:38:26.812Z,82.70
2022-12-06T08:43:30.178Z,81.80
2022-12-06T08:48:35.307Z,81.80
2022-12-06T08:53:43.246Z,81.80
2022-12-06T08:58:46.607Z,81.70
2022-12-06T09:03:49.997Z,81.50
2022-12-06T09:08:56.075Z,82.10
2022-12-06T09:13:59.504Z,82.50
2022-12-06T09:19:02.944Z,82.90
2022-12-06T09:24:08.391Z,83.00
2022-12-06T09:29:13.136Z,83.30
2022-12-06T09:34:17.024Z,83.50
2022-12-06T09:39:24.658Z,83.60
2022-12-06T09:44:46.262Z,83.80
2022-12-06T09:50:01.560Z,83.90
2022-12-06T09:55:19.383Z,83.80
2022-12-06T10:00:24.710Z,83.90
2022-12-06T10:05:38.704Z,83.80
2022-12-06T10:10:54.648Z,84.00
2022-12-06T10:16:06.934Z,84.10
2022-12-06T10:21:18.667Z,84.40
2022-12-06T10:26:32.820Z,84.40
2022-12-06T10:31:45.643Z,84.90
2022-12-06T10:37:00.243Z,85.00
2022-12-06T10:42:11.050Z,85.30
2022-12-06T10:47:20.115Z,85.30
2022-12-06T10:52:35.981Z,85.50
2022-12-06T10:57:48.072Z,85.60
2022-12-06T11:02:58.871Z,85.80
2022-12-06T11:08:07.166Z,86.10
2022-12-06T11:13:21.170Z,86.20
2022-12-06T11:18:29.033Z,85.90
2022-12-06T11:23:39.703Z,86.00
2022-12-06T11:28:52.619Z,85.50
2022-12-06T11:33:56.731Z,85.90
2022-12-06T11:39:01.588Z,86.00
2022-12-06T11:44:07.754Z,86.00
2022-12-06T11:49:17.831Z,87.10
2022-12-06T11:54:25.302Z,85.90
2022-12-06T11:59:31.907Z,85.60
2022-12-06T12:04:38.361Z,85.60
2022-12-06T12:09:58.299Z,85.50
2022-12-06T12:15:03.584Z,85.80
2022-12-06T12:20:09.694Z,85.50
2022-12-06T12:25:25.841Z,85.40
2022-12-06T12:30:34.478Z,85.30
2022-12-06T12:35:39.381Z,85.50
2022-12-06T12:40:44.879Z,85.50
2022-12-06T12:46:09.114Z,85.60
2022-12-06T12:51:28.893Z,85.80
2022-12-06T12:56:36.333Z,85.70
2022-12-06T13:01:47.403Z,85.50
2022-12-06T13:06:53.501Z,85.30
2022-12-06T13:12:02.690Z,85.20
2022-12-06T13:17:10.061Z,85.10
2022-12-06T13:22:20.091Z,85.00
2022-12-06T13:27:24.843Z,84.80
2022-12-06T13:32:34.605Z,84.70
2022-12-06T13:37:44.671Z,84.90
2022-12-06T13:42:48.062Z,84.80
2022-12-06T13:47:52.881Z,84.70
2022-12-06T13:53:03.278Z,84.00
2022-12-06T13:58:39.469Z,84.60
2022-12-06T14:03:55.139Z,83.90
2022-12-06T14:09:00.232Z,84.10
2022-12-06T14:14:08.835Z,83.80
2022-12-06T14:19:19.971Z,84.20
2022-12-06T14:24:31.992Z,84.50
2022-12-06T14:29:35.538Z,84.40
2022-12-06T14:34:40.540Z,84.50
2022-12-06T14:39:52.865Z,84.30
2022-12-06T14:45:01.996Z,84.30
2022-12-06T14:50:29.683Z,83.90
2022-12-06T14:55:34.568Z,84.10
2022-12-06T15:00:48.653Z,84.30
2022-12-06T15:06:10.087Z,84.40
2022-12-06T15:11:44.501Z,84.20
2022-12-06T15:16:58.221Z,84.60
2022-12-06T15:22:04.182Z,84.50
2022-12-06T15:27:07.656Z,84.40
2022-12-06T15:32:13.968Z,84.40
2022-12-06T15:42:42.753Z,84.20
2022-12-06T15:47:46.181Z,84.20
2022-12-06T15:52:50.921Z,84.10
2022-12-06T15:57:54.526Z,84.10
2022-12-06T16:02:58.036Z,84.00
2022-12-06T16:08:06.687Z,83.90
2022-12-06T16:13:25.028Z,83.80
2022-12-06T16:18:28.430Z,83.90
2022-12-06T16:29:16.960Z,84.00
2022-12-06T16:34:20.887Z,83.90
2022-12-06T16:39:26.406Z,84.00
2022-12-06T16:44:30.619Z,84.00
2022-12-06T16:49:49.686Z,84.20
2022-12-06T16:54:54.599Z,84.50
2022-12-06T16:59:57.984Z,84.50
2022-12-06T17:05:06.383Z,84.70
2022-12-06T17:10:13.316Z,84.80
2022-12-06T17:15:18.579Z,84.80
2022-12-06T17:20:22.035Z,84.90
2022-12-06T17:25:26.825Z,85.10
2022-12-06T17:30:30.248Z,85.00
2022-12-06T17:35:36.418Z,84.80
2022-12-06T17:40:41.176Z,84.70
2022-12-06T17:45:45.249Z,84.40
2022-12-06T17:50:48.741Z,84.00
2022-12-06T17:55:53.479Z,84.40
2022-12-06T18:00:59.928Z,84.00
2022-12-06T18:06:08.941Z,83.80
2022-12-06T18:11:15.435Z,83.70
2022-12-06T18:16:20.676Z,83.60
2022-12-06T18:21:25.470Z,83.60
2022-12-06T18:26:30.318Z,83.50
2022-12-06T18:31:35.329Z,82.80
2022-12-06T18:36:38.988Z,83.00
2022-12-06T18:41:44.094Z,82.80
2022-12-06T18:46:48.245Z,82.80
2022-12-06T18:51:51.641Z,82.70
2022-12-06T18:56:57.892Z,83.00
2022-12-06T19:02:01.336Z,83.30
2022-12-06T19:07:04.813Z,83.40
2022-12-06T19:12:09.908Z,83.70
2022-12-06T19:17:13.762Z,83.90
2022-12-06T19:22:17.165Z,84.00
2022-12-06T19:27:21.901Z,83.80
2022-12-06T19:32:25.419Z,84.10
2022-12-06T19:37:29.813Z,83.80
2022-12-06T19:42:53.471Z,83.60
2022-12-06T19:47:56.937Z,84.00
2022-12-06T19:53:00.652Z,83.70
2022-12-06T19:58:05.877Z,83.80
2022-12-06T20:03:09.350Z,83.60
2022-12-06T20:08:13.039Z,83.60
2022-12-06T20:13:17.834Z,83.40
2022-12-06T20:18:21.216Z,83.40
2022-12-06T20:23:26.226Z,83.20
2022-12-06T20:28:30.988Z,83.20
2022-12-06T20:33:34.434Z,83.40
2022-12-06T20:38:37.924Z,84.70
2022-12-06T20:43:43.472Z,83.60
2022-12-06T20:48:47.591Z,83.70
2022-12-06T20:53:53.264Z,83.70
2022-12-06T20:59:00.269Z,83.60
2022-12-06T21:04:04.243Z,83.80
2022-12-06T21:09:07.896Z,83.70
2022-12-06T21:14:14.218Z,83.70
2022-12-06T21:19:19.909Z,83.70
2022-12-06T21:24:23.439Z,83.60
2022-12-06T21:29:30.869Z,83.50
2022-12-06T21:34:34.980Z,83.70
2022-12-06T21:39:39.033Z,83.50
2022-12-06T21:44:43.790Z,83.30
2022-12-06T21:49:47.375Z,83.60
2022-12-06T21:54:50.883Z,83.40
2022-12-06T21:59:55.852Z,83.50
2022-12-06T22:04:59.284Z,83.60
2022-12-06T22:10:03.374Z,83.70
2022-12-06T22:15:09.713Z,83.80
2022-12-06T22:20:13.552Z,83.70
2022-12-06T22:25:19.550Z,83.70
2022-12-06T22:30:24.592Z,83.50
2022-12-06T22:35:28.254Z,83.40
2022-12-06T22:40:31.673Z,83.10
2022-12-06T22:45:36.496Z,83.50
2022-12-06T22:50:40.201Z,83.60
2022-12-06T22:55:43.829Z,83.90
2022-12-06T23:00:48.584Z,84.10
2022-12-06T23:05:59.081Z,84.20
2022-12-06T23:11:03.500Z,84.40
2022-12-06T23:16:12.554Z,84.60
2022-12-06T23:21:18.926Z,84.80
2022-12-06T23:26:24.833Z,84.50
2022-12-06T23:31:31.114Z,84.40
2022-12-06T23:36:36.608Z,84.50
2022-12-06T23:41:40.439Z,84.50
2022-12-06T23:46:46.000Z,84.50
2022-12-06T23:51:49.926Z,84.60
2022-12-06T23:56:53.310Z,84.60
